Juno — WDB7715 — position and weather

sailwx.info

Track history (hours):
 
Tides and Currents Weather Stations Pressure Air Temp Water Temp Dewpoint Dewpoint Depression Visibility Wind Speed Wind Dir Waves Ship Positions

Juno

Owner: All Alaskan Rondys, LLC, Seattle, WA. More information available from US FCC via Universal Licensing System and Coast Guard Vessel Documentation Center.

Last reported at 2018-Jan-24 01:16 UTC. Time now 2018-Jan-24 03:57 UTC.
Position N 46°54' W 124°06'.

; draft 4 m.

Type: Fishing. MMSI: 366946960.

Date/timePositionNaut miles runAvg speedWind from/ knotsBaromVisibWave heightAir tempDewpointWater temp
2018-Jan-24 01:16N 46°54' W 124°06'0 0.0
2018-Jan-24 00:55N 46°54' W 124°06'2 0.4
2018-Jan-23 19:36N 46°55' W 124°09'1 6.7
2018-Jan-23 19:30N 46°55' W 124°10'4 7.8
2018-Jan-23 19:00N 46°52' W 124°14'4 8.5
2018-Jan-23 18:30N 46°48' W 124°15'4 8.5
2018-Jan-23 18:00N 46°43' W 124°15'4 8.8
2018-Jan-23 17:31N 46°39' W 124°16'5 9.3
2018-Jan-23 17:00N 46°34' W 124°16'6 9.7
2018-Jan-23 16:23N 46°28' W 124°17'3 8.6
2018-Jan-23 16:01N 46°25' W 124°17'4 8.4
2018-Jan-23 15:31N 46°21' W 124°16'4 7.0
2018-Jan-23 15:01N 46°17' W 124°15'4 8.5
2018-Jan-23 14:31N 46°13' W 124°13'4 7.8
2018-Jan-23 14:01N 46°10' W 124°13'4 8.5
2018-Jan-23 13:31N 46°05' W 124°13'4 8.3
2018-Jan-23 13:01N 46°01' W 124°11'4 7.5
2018-Jan-23 12:30N 45°58' W 124°08'3 6.2
2018-Jan-23 12:01N 45°56' W 124°05'2 4.8
2018-Jan-23 11:30N 45°59' W 124°05'3 6.2
2018-Jan-23 11:00N 46°02' W 124°05'3 6.0
2018-Jan-23 10:31N 46°05' W 124°07'3 5.9
2018-Jan-23 10:01N 46°07' W 124°08'3 6.8
2018-Jan-23 09:31N 46°09' W 124°04'2 4.9
2018-Jan-23 09:01N 46°12' W 124°04'4 5.7
2018-Jan-23 08:22N 46°13' W 124°09'1 3.3
2018-Jan-23 08:01N 46°12' W 124°10'3 6.4
2018-Jan-23 07:31N 46°10' W 124°07'3 5.3
2018-Jan-23 07:01N 46°08' W 124°04'5 6.4
2018-Jan-23 06:15N 46°12' W 124°08'1 3.7
2018-Jan-23 06:00N 46°12' W 124°09'3 6.1
2018-Jan-23 05:30N 46°11' W 124°05'1 1.6
2018-Jan-23 04:53N 46°10' W 124°04'3 7.3
2018-Jan-23 04:27N 46°12' W 124°08'3 5.9
2018-Jan-23 04:01N 46°14' W 124°10'1 1.2
2018-Jan-23 03:31N 46°14' W 124°11'4 7.2
2018-Jan-23 03:01N 46°11' W 124°07'3 5.9
2018-Jan-23 02:31N 46°12' W 124°12'3 5.9
2018-Jan-23 01:57N 46°15' W 124°13'39 0.8
2018-Jan-20 22:20N 46°54' W 124°06'0 0.0
2018-Jan-20 21:59N 46°54' W 124°06'0 0.0
2018-Jan-20 21:28N 46°54' W 124°06'0 0.0
2018-Jan-19 17:37N 46°54' W 124°06'0 0.0
2018-Jan-19 13:24N 46°54' W 124°06'0 0.0
2018-Jan-19 12:04N 46°54' W 124°06'0 0.0
2018-Jan-19 11:56N 46°54' W 124°06'0 0.0
2018-Jan-19 11:18N 46°54' W 124°06'0 0.0
2018-Jan-19 10:36N 46°54' W 124°06'0 0.0
2018-Jan-18 23:25N 46°54' W 124°06'0 0.0
2018-Jan-18 23:00N 46°54' W 124°06'0 0.0
2018-Jan-18 22:28N 46°54' W 124°06'0 0.0
2018-Jan-18 21:49N 46°54' W 124°06'0 0.0
2018-Jan-18 21:25N 46°54' W 124°06'0 0.0
2018-Jan-18 20:43N 46°54' W 124°06'0 0.0
2018-Jan-18 20:28N 46°54' W 124°06'0 0.0
2018-Jan-18 19:58N 46°54' W 124°06'0 0.0
2018-Jan-18 19:25N 46°54' W 124°06'0 0.0
2018-Jan-18 11:31N 46°54' W 124°06'0 0.0
2018-Jan-18 11:06N 46°54' W 124°06'0 0.0
2018-Jan-18 10:54N 46°54' W 124°06'0 0.0
2018-Jan-18 10:29N 46°54' W 124°06'0 0.0
2018-Jan-18 09:59N 46°54' W 124°06'0 0.0
2018-Jan-18 08:56N 46°54' W 124°06'0 0.0
2018-Jan-18 08:26N 46°54' W 124°06'0 0.0
2018-Jan-18 08:00N 46°54' W 124°06'0 0.0
2018-Jan-18 03:04N 46°54' W 124°06'0 0.0
2018-Jan-18 00:48N 46°54' W 124°06'0 0.0
2018-Jan-18 00:01N 46°54' W 124°06'0 0.0
2018-Jan-17 23:57N 46°54' W 124°06'  
Track history (hours):
 
Tides and Currents Weather Stations Pressure Air Temp Water Temp Dewpoint Dewpoint Depression Visibility Wind Speed Wind Dir Waves Ship Positions

Juno

Owner: All Alaskan Rondys, LLC, Seattle, WA. More information available from US FCC via Universal Licensing System and Coast Guard Vessel Documentation Center.

Last reported at 2018-Jan-24 01:16 UTC. Time now 2018-Jan-24 03:57 UTC.
Position N 46°54' W 124°06'.

; draft 4 m.

Type: Fishing. MMSI: 366946960.

Date/timePositionNaut miles runAvg speedWind from/ knotsBaromVisibWave heightAir tempDewpointWater temp
2018-Jan-24 01:16N 46°54' W 124°06'0 0.0
2018-Jan-24 00:55N 46°54' W 124°06'2 0.4
2018-Jan-23 19:36N 46°55' W 124°09'1 6.7
2018-Jan-23 19:30N 46°55' W 124°10'4 7.8
2018-Jan-23 19:00N 46°52' W 124°14'4 8.5
2018-Jan-23 18:30N 46°48' W 124°15'4 8.5
2018-Jan-23 18:00N 46°43' W 124°15'4 8.8
2018-Jan-23 17:31N 46°39' W 124°16'5 9.3
2018-Jan-23 17:00N 46°34' W 124°16'6 9.7
2018-Jan-23 16:23N 46°28' W 124°17'3 8.6
2018-Jan-23 16:01N 46°25' W 124°17'4 8.4
2018-Jan-23 15:31N 46°21' W 124°16'4 7.0
2018-Jan-23 15:01N 46°17' W 124°15'4 8.5
2018-Jan-23 14:31N 46°13' W 124°13'4 7.8
2018-Jan-23 14:01N 46°10' W 124°13'4 8.5
2018-Jan-23 13:31N 46°05' W 124°13'4 8.3
2018-Jan-23 13:01N 46°01' W 124°11'4 7.5
2018-Jan-23 12:30N 45°58' W 124°08'3 6.2
2018-Jan-23 12:01N 45°56' W 124°05'2 4.8
2018-Jan-23 11:30N 45°59' W 124°05'3 6.2
2018-Jan-23 11:00N 46°02' W 124°05'3 6.0
2018-Jan-23 10:31N 46°05' W 124°07'3 5.9
2018-Jan-23 10:01N 46°07' W 124°08'3 6.8
2018-Jan-23 09:31N 46°09' W 124°04'2 4.9
2018-Jan-23 09:01N 46°12' W 124°04'4 5.7
2018-Jan-23 08:22N 46°13' W 124°09'1 3.3
2018-Jan-23 08:01N 46°12' W 124°10'3 6.4
2018-Jan-23 07:31N 46°10' W 124°07'3 5.3
2018-Jan-23 07:01N 46°08' W 124°04'5 6.4
2018-Jan-23 06:15N 46°12' W 124°08'1 3.7
2018-Jan-23 06:00N 46°12' W 124°09'3 6.1
2018-Jan-23 05:30N 46°11' W 124°05'1 1.6
2018-Jan-23 04:53N 46°10' W 124°04'3 7.3
2018-Jan-23 04:27N 46°12' W 124°08'3 5.9
2018-Jan-23 04:01N 46°14' W 124°10'1 1.2
2018-Jan-23 03:31N 46°14' W 124°11'4 7.2
2018-Jan-23 03:01N 46°11' W 124°07'3 5.9
2018-Jan-23 02:31N 46°12' W 124°12'3 5.9
2018-Jan-23 01:57N 46°15' W 124°13'39 0.8
2018-Jan-20 22:20N 46°54' W 124°06'0 0.0
2018-Jan-20 21:59N 46°54' W 124°06'0 0.0
2018-Jan-20 21:28N 46°54' W 124°06'0 0.0
2018-Jan-19 17:37N 46°54' W 124°06'0 0.0
2018-Jan-19 13:24N 46°54' W 124°06'0 0.0
2018-Jan-19 12:04N 46°54' W 124°06'0 0.0
2018-Jan-19 11:56N 46°54' W 124°06'0 0.0
2018-Jan-19 11:18N 46°54' W 124°06'0 0.0
2018-Jan-19 10:36N 46°54' W 124°06'0 0.0
2018-Jan-18 23:25N 46°54' W 124°06'0 0.0
2018-Jan-18 23:00N 46°54' W 124°06'0 0.0
2018-Jan-18 22:28N 46°54' W 124°06'0 0.0
2018-Jan-18 21:49N 46°54' W 124°06'0 0.0
2018-Jan-18 21:25N 46°54' W 124°06'0 0.0
2018-Jan-18 20:43N 46°54' W 124°06'0 0.0
2018-Jan-18 20:28N 46°54' W 124°06'0 0.0
2018-Jan-18 19:58N 46°54' W 124°06'0 0.0
2018-Jan-18 19:25N 46°54' W 124°06'0 0.0
2018-Jan-18 11:31N 46°54' W 124°06'0 0.0
2018-Jan-18 11:06N 46°54' W 124°06'0 0.0
2018-Jan-18 10:54N 46°54' W 124°06'0 0.0
2018-Jan-18 10:29N 46°54' W 124°06'0 0.0
2018-Jan-18 09:59N 46°54' W 124°06'0 0.0
2018-Jan-18 08:56N 46°54' W 124°06'0 0.0
2018-Jan-18 08:26N 46°54' W 124°06'0 0.0
2018-Jan-18 08:00N 46°54' W 124°06'0 0.0
2018-Jan-18 03:04N 46°54' W 124°06'0 0.0
2018-Jan-18 00:48N 46°54' W 124°06'0 0.0
2018-Jan-18 00:01N 46°54' W 124°06'0 0.0
2018-Jan-17 23:57N 46°54' W 124°06'  

Dump ship's entire track history